createdAt,value
2022-09-07T00:00:09.804Z,9.75
2022-09-07T00:00:42.081Z,9.90
2022-09-07T00:01:13.751Z,10.57
2022-09-07T00:01:45.566Z,10.63
2022-09-07T00:02:17.188Z,9.07
2022-09-07T00:02:48.856Z,8.35
2022-09-07T00:03:21.568Z,9.60
2022-09-07T00:03:57.060Z,8.25
2022-09-07T00:04:28.790Z,8.80
2022-09-07T00:05:00.473Z,8.75
2022-09-07T00:05:32.469Z,7.57
2022-09-07T00:06:09.478Z,8.43
2022-09-07T00:06:41.154Z,7.85
2022-09-07T00:07:12.761Z,7.80
2022-09-07T00:07:44.421Z,7.80
2022-09-07T00:08:18.391Z,8.50
2022-09-07T00:08:50.200Z,8.60
2022-09-07T00:09:21.805Z,8.93
2022-09-07T00:09:53.481Z,8.77
2022-09-07T00:10:25.921Z,9.82
2022-09-07T00:11:04.002Z,9.27
2022-09-07T00:11:36.253Z,8.43
2022-09-07T00:12:07.867Z,8.60
2022-09-07T00:12:39.653Z,9.93
2022-09-07T00:13:11.249Z,9.35
2022-09-07T00:13:44.818Z,10.15
2022-09-07T00:14:16.747Z,9.50
2022-09-07T00:14:48.358Z,10.05
2022-09-07T00:15:20.152Z,8.98
2022-09-07T00:15:51.946Z,8.50
2022-09-07T00:16:27.103Z,8.55
2022-09-07T00:16:58.749Z,8.73
2022-09-07T00:17:30.357Z,8.38
2022-09-07T00:18:01.946Z,9.05
2022-09-07T00:18:33.794Z,9.48
2022-09-07T00:19:05.619Z,9.07
2022-09-07T00:19:37.241Z,9.63
2022-09-07T00:20:11.139Z,9.15
2022-09-07T00:20:42.768Z,9.38
2022-09-07T00:21:16.868Z,9.10
2022-09-07T00:21:48.506Z,9.52
2022-09-07T00:22:20.141Z,9.00
2022-09-07T00:22:51.765Z,9.73
2022-09-07T00:23:23.404Z,8.88
2022-09-07T00:23:55.605Z,8.63
2022-09-07T00:24:27.690Z,9.05
2022-09-07T00:24:59.300Z,8.55
2022-09-07T00:25:32.140Z,9.25
2022-09-07T00:26:10.467Z,8.77
2022-09-07T00:26:42.090Z,8.45
2022-09-07T00:27:13.755Z,9.10
2022-09-07T00:27:45.355Z,9.27
2022-09-07T00:28:16.979Z,9.35
2022-09-07T00:28:49.738Z,9.40
2022-09-07T00:29:21.414Z,9.50
2022-09-07T00:29:53.042Z,8.95
2022-09-07T00:30:24.665Z,9.32
2022-09-07T00:30:56.454Z,8.90
2022-09-07T00:31:29.865Z,8.60
2022-09-07T00:32:01.603Z,8.68
2022-09-07T00:32:33.506Z,9.13
2022-09-07T00:33:05.094Z,9.90
2022-09-07T00:33:36.704Z,8.85
2022-09-07T00:34:08.316Z,9.35
2022-09-07T00:34:39.918Z,9.32
2022-09-07T00:35:12.688Z,9.23
2022-09-07T00:35:44.340Z,9.38
2022-09-07T00:36:17.111Z,9.25
2022-09-07T00:36:48.738Z,9.02
2022-09-07T00:37:20.495Z,8.90
2022-09-07T00:37:52.123Z,9.45
2022-09-07T00:38:23.717Z,8.57
2022-09-07T00:38:55.632Z,9.05
2022-09-07T00:39:27.253Z,9.88
2022-09-07T00:39:58.943Z,10.23
2022-09-07T00:40:30.972Z,9.80
2022-09-07T00:41:02.658Z,9.63
2022-09-07T00:41:34.322Z,9.07
2022-09-07T00:42:06.206Z,9.50
2022-09-07T00:42:37.924Z,9.95
2022-09-07T00:43:16.965Z,9.75
2022-09-07T00:43:51.648Z,9.97
2022-09-07T00:44:44.725Z,9.68
2022-09-07T00:45:17.830Z,10.13
2022-09-07T00:45:49.422Z,9.73
2022-09-07T00:46:25.097Z,10.00
2022-09-07T00:46:57.671Z,10.45
2022-09-07T00:47:45.096Z,10.18
2022-09-07T00:48:19.938Z,10.63
2022-09-07T00:49:02.454Z,10.18
2022-09-07T00:49:35.243Z,9.32
2022-09-07T00:50:27.934Z,9.47
2022-09-07T00:51:04.702Z,9.90
2022-09-07T00:51:43.781Z,9.98
2022-09-07T00:52:17.438Z,10.05
2022-09-07T00:52:53.203Z,9.60
2022-09-07T00:53:43.294Z,10.55
2022-09-07T00:54:19.352Z,10.02
2022-09-07T00:54:54.410Z,9.98
2022-09-07T00:55:27.633Z,9.82
2022-09-07T00:56:01.228Z,10.40
2022-09-07T00:56:36.878Z,9.87
2022-09-07T00:57:08.950Z,9.02
2022-09-07T00:57:43.153Z,10.45
2022-09-07T00:58:15.776Z,9.60
2022-09-07T00:58:47.474Z,10.57
2022-09-07T00:59:25.589Z,9.48
2022-09-07T00:59:57.784Z,9.52
2022-09-07T01:00:30.858Z,9.98
2022-09-07T01:01:02.499Z,9.75
2022-09-07T01:01:34.749Z,9.85
2022-09-07T01:02:06.694Z,9.83
2022-09-07T01:02:38.884Z,10.05
2022-09-07T01:03:11.436Z,9.82
2022-09-07T01:03:48.864Z,10.10
2022-09-07T01:04:22.245Z,9.60
2022-09-07T01:05:04.494Z,9.68
2022-09-07T01:05:43.666Z,9.68
2022-09-07T01:06:26.438Z,9.82
2022-09-07T01:06:58.996Z,10.07
2022-09-07T01:07:30.875Z,9.52
2022-09-07T01:08:03.134Z,10.20
2022-09-07T01:08:35.998Z,10.30
2022-09-07T01:09:11.635Z,10.05
2022-09-07T01:09:44.095Z,9.60
2022-09-07T01:10:15.982Z,10.13
2022-09-07T01:10:47.618Z,10.20
2022-09-07T01:11:22.276Z,10.30
2022-09-07T01:11:57.709Z,10.05
2022-09-07T01:12:29.329Z,9.57
2022-09-07T01:13:00.985Z,9.88
2022-09-07T01:13:32.634Z,10.40
2022-09-07T01:14:09.208Z,10.68
2022-09-07T01:14:50.637Z,10.27
2022-09-07T01:15:25.271Z,9.27
2022-09-07T01:16:16.051Z,10.43
2022-09-07T01:17:17.110Z,10.45
2022-09-07T01:18:03.570Z,9.98
2022-09-07T01:19:19.272Z,9.70
2022-09-07T01:20:09.291Z,9.60
2022-09-07T01:20:43.819Z,9.05
2022-09-07T01:21:33.109Z,9.97
2022-09-07T01:22:34.740Z,9.90
2022-09-07T01:23:21.311Z,9.38
2022-09-07T01:24:27.745Z,10.55
2022-09-07T01:25:04.777Z,9.75
2022-09-07T01:26:01.310Z,9.65
2022-09-07T01:26:56.987Z,10.15
2022-09-07T01:27:36.209Z,10.27
2022-09-07T01:28:32.320Z,10.65
2022-09-07T01:29:16.681Z,10.35
2022-09-07T01:29:54.230Z,10.17
2022-09-07T01:30:27.289Z,9.70
2022-09-07T01:31:04.618Z,10.95
2022-09-07T01:32:02.954Z,10.95
2022-09-07T01:32:48.213Z,10.40
2022-09-07T01:33:51.731Z,10.82
2022-09-07T01:34:26.435Z,10.65
2022-09-07T01:35:01.957Z,11.82
2022-09-07T01:35:36.458Z,11.20
2022-09-07T01:36:10.682Z,10.48
2022-09-07T01:36:57.227Z,11.40
2022-09-07T01:37:50.587Z,11.10
2022-09-07T01:38:33.173Z,11.23
2022-09-07T01:39:06.325Z,10.75
2022-09-07T01:39:51.635Z,10.98
2022-09-07T01:40:38.285Z,10.85
2022-09-07T01:41:35.613Z,10.20
2022-09-07T01:42:15.585Z,11.30
2022-09-07T01:42:59.495Z,11.05
2022-09-07T01:43:34.061Z,10.57
2022-09-07T01:44:08.005Z,11.00
2022-09-07T01:44:46.529Z,10.70
2022-09-07T01:45:22.163Z,10.27
2022-09-07T01:45:56.158Z,11.55
2022-09-07T01:46:31.849Z,10.80
2022-09-07T01:47:13.197Z,11.63
2022-09-07T01:47:53.073Z,11.52
2022-09-07T01:48:26.478Z,11.35
2022-09-07T01:49:08.287Z,11.68
2022-09-07T01:49:42.630Z,10.20
2022-09-07T01:50:16.845Z,10.60
2022-09-07T01:50:58.023Z,10.57
2022-09-07T01:51:33.545Z,10.48
2022-09-07T01:52:40.068Z,10.05
2022-09-07T01:53:34.861Z,10.55
2022-09-07T01:54:13.119Z,10.25
2022-09-07T01:54:51.837Z,10.82
2022-09-07T01:55:49.855Z,10.73
2022-09-07T01:56:27.808Z,11.02
2022-09-07T01:57:05.175Z,10.93
2022-09-07T01:57:43.568Z,10.23
2022-09-07T01:58:22.034Z,10.73
2022-09-07T01:58:58.722Z,11.50
2022-09-07T01:59:32.617Z,11.52
2022-09-07T02:00:07.951Z,11.18
2022-09-07T02:01:36.643Z,11.35
2022-09-07T02:02:16.674Z,10.88
2022-09-07T02:03:12.106Z,10.00
2022-09-07T02:03:58.446Z,10.98
2022-09-07T02:04:39.981Z,10.47
2022-09-07T02:05:19.149Z,10.55
2022-09-07T02:06:10.759Z,11.07
2022-09-07T02:07:04.800Z,10.75
2022-09-07T02:07:42.365Z,11.30
2022-09-07T02:08:19.473Z,10.35
2022-09-07T02:09:04.633Z,10.90
2022-09-07T02:09:42.739Z,11.30
2022-09-07T02:10:19.439Z,10.77
2022-09-07T02:11:03.901Z,10.85
2022-09-07T02:11:39.960Z,11.13
2022-09-07T02:12:26.985Z,11.20
2022-09-07T02:13:12.231Z,11.77
2022-09-07T02:13:54.221Z,11.30
2022-09-07T02:14:32.252Z,11.50
2022-09-07T02:15:11.107Z,11.27
2022-09-07T02:15:52.236Z,12.68
2022-09-07T02:16:28.417Z,11.77
2022-09-07T02:17:12.317Z,11.73
2022-09-07T02:17:49.645Z,11.32
2022-09-07T02:18:22.936Z,11.87
2022-09-07T02:19:02.553Z,11.77
2022-09-07T02:19:42.496Z,11.25
2022-09-07T02:20:19.456Z,11.57
2022-09-07T02:20:54.560Z,11.60
2022-09-07T02:21:36.565Z,11.05
2022-09-07T02:22:14.399Z,11.80
2022-09-07T02:22:51.067Z,11.45
2022-09-07T02:23:26.245Z,11.73
2022-09-07T02:24:04.583Z,12.48
2022-09-07T02:24:42.894Z,12.10
2022-09-07T02:25:21.981Z,11.57
2022-09-07T02:26:02.129Z,12.32
2022-09-07T02:26:36.739Z,11.77
2022-09-07T02:27:13.540Z,11.93
2022-09-07T02:27:54.399Z,11.80
2022-09-07T02:28:44.166Z,11.80
2022-09-07T02:29:15.874Z,11.52
2022-09-07T02:29:47.645Z,12.73
2022-09-07T02:30:19.353Z,11.88
2022-09-07T02:30:51.179Z,11.93
2022-09-07T02:31:23.753Z,12.20
2022-09-07T02:31:55.479Z,12.15
2022-09-07T02:32:27.131Z,12.48
2022-09-07T02:32:58.860Z,12.40
2022-09-07T02:33:31.064Z,11.77
2022-09-07T02:34:02.677Z,12.50
2022-09-07T02:34:34.406Z,12.98
2022-09-07T02:35:06.781Z,12.32
2022-09-07T02:35:38.596Z,12.25
2022-09-07T02:36:12.722Z,12.57
2022-09-07T02:36:47.758Z,12.57
2022-09-07T02:37:20.579Z,12.52
2022-09-07T02:37:53.124Z,12.55
2022-09-07T02:38:24.829Z,12.10
2022-09-07T02:38:56.535Z,12.13
2022-09-07T02:39:28.404Z,12.27
2022-09-07T02:40:00.494Z,12.20
2022-09-07T02:40:32.662Z,11.98
2022-09-07T02:41:05.450Z,11.75
2022-09-07T02:41:40.303Z,12.90
2022-09-07T02:42:12.013Z,11.70
2022-09-07T02:42:45.153Z,12.00
2022-09-07T02:43:16.811Z,12.18
2022-09-07T02:43:48.425Z,12.18
2022-09-07T02:44:23.294Z,11.90
2022-09-07T02:44:55.085Z,12.65
2022-09-07T02:45:37.866Z,11.77
2022-09-07T02:46:19.679Z,12.10
2022-09-07T02:47:15.754Z,11.90
2022-09-07T02:47:48.558Z,11.77
2022-09-07T02:48:29.755Z,11.93
2022-09-07T02:49:01.356Z,11.68
2022-09-07T02:50:04.350Z,12.13
2022-09-07T02:50:58.666Z,12.57
2022-09-07T02:51:45.567Z,12.07
2022-09-07T02:52:28.994Z,12.25
2022-09-07T02:53:27.539Z,11.70
2022-09-07T02:54:40.557Z,11.23
2022-09-07T02:55:31.708Z,11.77
2022-09-07T02:56:12.605Z,11.50
2022-09-07T02:57:10.030Z,12.63
2022-09-07T02:58:44.127Z,11.98
2022-09-07T02:59:37.506Z,11.63
2022-09-07T03:00:18.022Z,11.23
2022-09-07T03:01:04.235Z,11.23
2022-09-07T03:01:41.722Z,11.85
2022-09-07T03:02:24.893Z,11.32
2022-09-07T03:03:21.440Z,11.70
2022-09-07T03:04:18.642Z,11.07
2022-09-07T03:05:14.594Z,11.20
2022-09-07T03:06:02.941Z,11.00
2022-09-07T03:06:53.409Z,11.95
2022-09-07T03:07:35.782Z,11.60
2022-09-07T03:08:14.063Z,11.50
2022-09-07T03:08:50.605Z,11.68
2022-09-07T03:09:28.683Z,12.27
2022-09-07T03:10:03.121Z,12.30
2022-09-07T03:10:38.734Z,11.98
2022-09-07T03:11:10.613Z,11.93
2022-09-07T03:11:42.593Z,11.70
2022-09-07T03:12:14.463Z,11.45
2022-09-07T03:12:49.320Z,12.27
2022-09-07T03:13:26.747Z,11.80
2022-09-07T03:14:15.419Z,11.85
2022-09-07T03:14:47.039Z,12.30
2022-09-07T03:15:22.496Z,11.55
2022-09-07T03:15:56.308Z,12.05
2022-09-07T03:16:28.151Z,11.93
2022-09-07T03:17:00.462Z,12.15
2022-09-07T03:17:32.185Z,11.57
2022-09-07T03:18:03.845Z,11.10
2022-09-07T03:18:35.449Z,11.77
2022-09-07T03:19:07.064Z,12.00
2022-09-07T03:19:38.733Z,11.82
2022-09-07T03:20:10.685Z,10.98
2022-09-07T03:20:42.318Z,12.48
2022-09-07T03:21:13.929Z,11.05
2022-09-07T03:21:45.724Z,11.07
2022-09-07T03:22:17.309Z,11.07
2022-09-07T03:22:50.577Z,10.63
2022-09-07T03:23:22.310Z,10.35
2022-09-07T03:23:54.964Z,10.95
2022-09-07T03:24:26.537Z,11.20
2022-09-07T03:24:58.138Z,10.27
2022-09-07T03:25:29.735Z,10.88
2022-09-07T03:26:01.339Z,10.68
2022-09-07T03:26:33.009Z,10.60
2022-09-07T03:27:04.637Z,9.80
2022-09-07T03:27:36.375Z,9.25
2022-09-07T03:28:08.005Z,10.90
2022-09-07T03:28:39.594Z,10.13
2022-09-07T03:29:11.305Z,10.02
2022-09-07T03:29:43.001Z,9.98
2022-09-07T03:30:14.781Z,9.38
2022-09-07T03:30:49.345Z,10.60
2022-09-07T03:31:21.089Z,10.20
2022-09-07T03:31:53.030Z,10.95
2022-09-07T03:32:24.947Z,9.73
2022-09-07T03:32:56.625Z,10.18
2022-09-07T03:33:28.253Z,10.17
2022-09-07T03:33:59.915Z,10.32
2022-09-07T03:34:31.574Z,10.38
2022-09-07T03:35:04.745Z,10.77
2022-09-07T03:35:36.349Z,10.15
2022-09-07T03:36:08.167Z,10.90
2022-09-07T03:36:40.497Z,10.23
2022-09-07T03:37:12.126Z,10.70
2022-09-07T03:37:44.308Z,10.45
2022-09-07T03:38:15.961Z,10.60
2022-09-07T03:38:47.533Z,10.70
2022-09-07T03:39:22.616Z,10.70
2022-09-07T03:39:54.330Z,10.45
2022-09-07T03:40:25.969Z,10.57
2022-09-07T03:40:59.676Z,10.63
2022-09-07T03:41:31.443Z,10.82
2022-09-07T03:42:03.119Z,11.07
2022-09-07T03:42:35.458Z,11.35
2022-09-07T03:43:07.070Z,11.07
2022-09-07T03:43:38.900Z,10.70
2022-09-07T03:44:11.793Z,11.00
2022-09-07T03:44:43.389Z,10.80
2022-09-07T03:45:15.014Z,10.73
2022-09-07T03:45:46.628Z,10.65
2022-09-07T03:46:19.578Z,10.80
2022-09-07T03:46:51.277Z,10.85
2022-09-07T03:47:22.897Z,10.88
2022-09-07T03:47:54.525Z,10.32
2022-09-07T03:48:27.305Z,11.02
2022-09-07T03:48:58.997Z,11.18
2022-09-07T03:49:30.927Z,11.13
2022-09-07T03:50:03.022Z,11.65
2022-09-07T03:50:34.622Z,11.52
2022-09-07T03:51:09.022Z,11.70
2022-09-07T03:51:40.609Z,12.43
2022-09-07T03:52:12.414Z,11.48
2022-09-07T03:52:44.279Z,11.73
2022-09-07T03:53:15.899Z,11.10
2022-09-07T03:53:47.885Z,12.02
2022-09-07T03:54:19.468Z,11.48
2022-09-07T03:54:51.061Z,11.60
2022-09-07T03:55:22.720Z,11.30
2022-09-07T03:56:09.355Z,11.65
2022-09-07T03:56:40.975Z,12.00
2022-09-07T03:57:13.322Z,11.55
2022-09-07T03:57:44.904Z,11.07
2022-09-07T03:58:16.510Z,11.30
2022-09-07T03:58:49.938Z,11.15
2022-09-07T03:59:21.772Z,12.38
2022-09-07T03:59:53.363Z,12.63
2022-09-07T04:00:26.138Z,11.57
2022-09-07T04:00:58.820Z,11.20
2022-09-07T04:01:30.640Z,11.43
2022-09-07T04:02:02.561Z,11.85
2022-09-07T04:02:34.270Z,11.85
2022-09-07T04:03:05.882Z,11.98
2022-09-07T04:03:37.855Z,12.30
2022-09-07T04:04:09.488Z,11.50
2022-09-07T04:04:42.863Z,11.95
2022-09-07T04:05:15.054Z,11.80
2022-09-07T04:05:46.750Z,11.97
2022-09-07T04:06:18.783Z,12.32
2022-09-07T04:06:50.926Z,12.98
2022-09-07T04:07:22.547Z,12.75
2022-09-07T04:07:54.156Z,12.20
2022-09-07T04:08:27.821Z,12.98
2022-09-07T04:09:17.752Z,12.70
2022-09-07T04:09:51.322Z,11.73
2022-09-07T04:10:22.914Z,12.48
2022-09-07T04:10:57.300Z,12.18
2022-09-07T04:11:28.902Z,12.03
2022-09-07T04:12:00.698Z,12.60
2022-09-07T04:12:32.342Z,11.55
2022-09-07T04:13:04.258Z,13.02
2022-09-07T04:13:36.684Z,12.25
2022-09-07T04:14:10.103Z,12.60
2022-09-07T04:14:41.730Z,12.35
2022-09-07T04:15:13.374Z,12.52
2022-09-07T04:15:44.962Z,12.90
2022-09-07T04:16:22.048Z,12.63
2022-09-07T04:16:53.736Z,13.00
2022-09-07T04:17:25.330Z,13.07
2022-09-07T04:17:56.918Z,12.65
2022-09-07T04:18:28.504Z,13.20
2022-09-07T04:19:00.194Z,13.48
2022-09-07T04:19:32.073Z,12.68
2022-09-07T04:20:04.630Z,13.15
2022-09-07T04:20:36.252Z,11.43
2022-09-07T04:21:07.994Z,12.80
2022-09-07T04:21:39.966Z,11.95
2022-09-07T04:22:11.693Z,12.33
2022-09-07T04:22:44.132Z,12.35
2022-09-07T04:23:15.726Z,11.95
2022-09-07T04:23:47.914Z,12.05
2022-09-07T04:24:19.532Z,12.73
2022-09-07T04:24:51.187Z,11.45
2022-09-07T04:25:22.848Z,11.82
2022-09-07T04:25:54.539Z,12.20
2022-09-07T04:26:31.925Z,12.75
2022-09-07T04:27:03.612Z,11.50
2022-09-07T04:27:35.237Z,12.17
2022-09-07T04:28:06.818Z,12.68
2022-09-07T04:28:38.404Z,12.07
2022-09-07T04:29:11.371Z,12.02
2022-09-07T04:29:42.977Z,12.05
2022-09-07T04:30:14.588Z,12.20
2022-09-07T04:30:47.451Z,12.90
2022-09-07T04:31:20.308Z,11.85
2022-09-07T04:31:51.994Z,12.00
2022-09-07T04:32:23.610Z,11.02
2022-09-07T04:32:55.210Z,11.27
2022-09-07T04:33:26.788Z,11.57
2022-09-07T04:33:58.498Z,11.95
2022-09-07T04:34:30.256Z,11.23
2022-09-07T04:35:02.114Z,11.27
2022-09-07T04:35:36.836Z,11.02
2022-09-07T04:36:10.484Z,10.88
2022-09-07T04:36:42.143Z,11.68
2022-09-07T04:37:13.731Z,11.93
2022-09-07T04:37:45.574Z,11.82
2022-09-07T04:38:17.241Z,12.00
2022-09-07T04:38:55.737Z,12.20
2022-09-07T04:39:27.421Z,11.40
2022-09-07T04:39:59.100Z,11.70
2022-09-07T04:40:30.744Z,12.02
2022-09-07T04:41:09.413Z,11.68
2022-09-07T04:41:41.022Z,11.40
2022-09-07T04:42:12.657Z,10.45
2022-09-07T04:42:44.394Z,11.07
2022-09-07T04:43:16.093Z,11.32
2022-09-07T04:43:48.194Z,10.73
2022-09-07T04:44:19.777Z,11.05
2022-09-07T04:44:51.362Z,11.25
2022-09-07T04:45:22.972Z,11.05
2022-09-07T04:45:54.769Z,11.57
2022-09-07T04:46:35.126Z,11.20
2022-09-07T04:47:06.914Z,10.98
2022-09-07T04:47:38.516Z,11.45
2022-09-07T04:48:10.105Z,11.57
2022-09-07T04:48:41.693Z,11.07
2022-09-07T04:49:13.824Z,10.97
2022-09-07T04:49:45.402Z,10.68
2022-09-07T04:50:18.382Z,11.48
2022-09-07T04:50:52.080Z,11.23
2022-09-07T04:51:26.278Z,11.02
2022-09-07T04:51:57.916Z,11.32
2022-09-07T04:52:29.544Z,11.70
2022-09-07T04:53:01.137Z,11.57
2022-09-07T04:53:34.159Z,11.13
2022-09-07T04:54:06.318Z,11.65
2022-09-07T04:54:38.025Z,11.53
2022-09-07T04:55:10.379Z,11.13
2022-09-07T04:55:41.965Z,11.65
2022-09-07T04:56:16.872Z,11.10
2022-09-07T04:56:48.722Z,11.68
2022-09-07T04:57:24.243Z,11.90
2022-09-07T04:57:55.881Z,12.57
2022-09-07T04:58:28.020Z,11.63
2022-09-07T04:59:01.369Z,11.80
2022-09-07T04:59:32.953Z,12.00
2022-09-07T05:00:10.964Z,12.73
2022-09-07T05:00:42.742Z,11.35
2022-09-07T05:01:17.668Z,11.02
2022-09-07T05:01:49.340Z,11.27
2022-09-07T05:02:21.046Z,11.02
2022-09-07T05:02:52.895Z,11.15
2022-09-07T05:03:24.583Z,10.80
2022-09-07T05:03:56.819Z,10.85
2022-09-07T05:04:28.407Z,10.25
2022-09-07T05:05:02.743Z,10.50
2022-09-07T05:05:38.171Z,10.57
2022-09-07T05:06:10.486Z,10.25
2022-09-07T05:06:42.221Z,9.73
2022-09-07T05:07:13.967Z,10.13
2022-09-07T05:07:45.617Z,10.38
2022-09-07T05:08:17.282Z,9.82
2022-09-07T05:08:51.331Z,10.40
2022-09-07T05:09:22.973Z,10.75
2022-09-07T05:09:54.549Z,10.00
2022-09-07T05:10:26.356Z,10.65
2022-09-07T05:10:57.965Z,9.93
2022-09-07T05:11:30.166Z,10.55
2022-09-07T05:12:02.189Z,10.00
2022-09-07T05:12:33.789Z,10.48
2022-09-07T05:13:05.500Z,10.82
2022-09-07T05:13:37.469Z,10.63
2022-09-07T05:14:10.430Z,10.55
2022-09-07T05:14:42.021Z,9.88
2022-09-07T05:15:13.725Z,10.75
2022-09-07T05:15:45.374Z,9.80
2022-09-07T05:16:19.661Z,9.97
2022-09-07T05:16:51.330Z,10.40
2022-09-07T05:17:23.015Z,10.55
2022-09-07T05:17:54.591Z,10.32
2022-09-07T05:18:26.687Z,9.80
2022-09-07T05:19:02.751Z,10.20
2022-09-07T05:19:34.377Z,9.77
2022-09-07T05:20:07.145Z,9.70
2022-09-07T05:20:38.733Z,11.15
2022-09-07T05:21:19.177Z,9.45
2022-09-07T05:21:50.781Z,9.20
2022-09-07T05:22:22.462Z,8.95
2022-09-07T05:22:59.546Z,9.38
2022-09-07T05:23:31.264Z,9.95
2022-09-07T05:24:04.190Z,9.57
2022-09-07T05:24:36.779Z,9.45
2022-09-07T05:25:09.563Z,9.63
2022-09-07T05:25:45.425Z,9.30
2022-09-07T05:26:18.153Z,9.13
2022-09-07T05:26:49.765Z,8.25
2022-09-07T05:27:21.489Z,9.23
2022-09-07T05:27:53.441Z,9.25
2022-09-07T05:28:25.027Z,8.80
2022-09-07T05:30:05.834Z,8.05
2022-09-07T05:31:31.210Z,8.70
2022-09-07T05:32:02.853Z,8.02
2022-09-07T05:32:34.430Z,8.50
2022-09-07T05:33:08.214Z,8.80
2022-09-07T05:34:32.524Z,8.15
2022-09-07T05:35:04.682Z,8.43
2022-09-07T05:35:36.315Z,8.85
2022-09-07T05:36:08.713Z,8.98
2022-09-07T05:36:40.448Z,8.52
2022-09-07T05:37:12.124Z,9.13
2022-09-07T05:37:43.827Z,8.45
2022-09-07T05:38:15.443Z,8.65
2022-09-07T05:38:47.441Z,8.18
2022-09-07T05:39:21.089Z,9.03
2022-09-07T05:39:56.893Z,8.40
2022-09-07T05:40:31.796Z,8.20
2022-09-07T05:41:17.794Z,8.50
2022-09-07T05:41:49.814Z,7.82
2022-09-07T05:42:21.412Z,7.25
2022-09-07T05:42:53.001Z,8.27
2022-09-07T05:43:24.657Z,7.55
2022-09-07T05:44:48.146Z,6.85
2022-09-07T05:45:19.832Z,7.67
2022-09-07T05:45:55.337Z,7.72
2022-09-07T05:46:27.010Z,8.20
2022-09-07T05:46:58.619Z,8.02
2022-09-07T05:47:30.264Z,8.10
2022-09-07T05:48:02.187Z,8.30
2022-09-07T05:48:33.984Z,7.85
2022-09-07T05:49:06.475Z,7.55
2022-09-07T05:49:38.186Z,8.63
2022-09-07T05:50:10.700Z,8.18
2022-09-07T05:50:52.696Z,6.60
2022-09-07T05:51:24.288Z,7.03
2022-09-07T05:51:55.864Z,7.50
2022-09-07T05:52:27.469Z,7.85
2022-09-07T05:52:59.330Z,8.20
2022-09-07T05:53:31.619Z,7.60
2022-09-07T05:54:03.670Z,7.25
2022-09-07T05:54:35.374Z,7.05
2022-09-07T05:55:28.183Z,7.50
2022-09-07T05:56:03.949Z,7.85
2022-09-07T05:56:38.211Z,7.73
2022-09-07T05:57:12.102Z,8.30
2022-09-07T05:57:43.700Z,7.28
2022-09-07T05:58:16.129Z,7.85
2022-09-07T05:58:50.808Z,6.90
2022-09-07T05:59:22.412Z,7.00
2022-09-07T05:59:54.061Z,7.82
2022-09-07T06:00:25.678Z,7.38
2022-09-07T06:01:01.809Z,8.27
2022-09-07T06:01:35.344Z,7.72
2022-09-07T06:02:07.693Z,7.60
2022-09-07T06:02:40.007Z,7.43
2022-09-07T06:03:12.094Z,7.45
2022-09-07T06:03:44.706Z,7.15
2022-09-07T06:04:16.659Z,8.68
2022-09-07T06:04:48.602Z,7.43
2022-09-07T06:05:20.193Z,7.72
2022-09-07T06:06:11.951Z,7.43
2022-09-07T06:06:54.590Z,7.20
2022-09-07T06:07:35.147Z,6.50
2022-09-07T06:08:06.834Z,7.20
2022-09-07T06:08:43.520Z,7.47
2022-09-07T06:09:15.114Z,7.82
2022-09-07T06:10:46.140Z,7.85
2022-09-07T06:11:20.326Z,7.60
2022-09-07T06:11:51.912Z,7.80
2022-09-07T06:12:23.572Z,7.75
2022-09-07T06:12:55.151Z,7.30
2022-09-07T06:13:26.979Z,8.05
2022-09-07T06:13:58.591Z,7.90
2022-09-07T06:14:30.208Z,7.70
2022-09-07T06:15:01.921Z,7.68
2022-09-07T06:15:34.422Z,8.02
2022-09-07T06:16:08.166Z,7.82
2022-09-07T06:16:40.129Z,7.97
2022-09-07T06:17:11.746Z,7.40
2022-09-07T06:17:43.468Z,7.38
2022-09-07T06:18:15.247Z,7.90
2022-09-07T06:18:48.607Z,8.18
2022-09-07T06:19:20.190Z,7.77
2022-09-07T06:19:51.774Z,8.07
2022-09-07T06:20:23.381Z,7.45
2022-09-07T06:20:55.059Z,8.00
2022-09-07T06:21:26.790Z,7.88
2022-09-07T06:21:58.376Z,7.10
2022-09-07T06:22:31.241Z,7.63
2022-09-07T06:23:03.013Z,7.43
2022-09-07T06:23:36.607Z,8.07
2022-09-07T06:24:08.476Z,7.43
2022-09-07T06:24:40.074Z,7.23
2022-09-07T06:25:11.659Z,7.43
2022-09-07T06:25:49.805Z,7.85
2022-09-07T06:26:21.550Z,7.28
2022-09-07T06:26:53.174Z,7.45
2022-09-07T06:27:24.811Z,7.47
2022-09-07T06:27:56.400Z,7.22
2022-09-07T06:28:30.134Z,7.90
2022-09-07T06:29:02.645Z,7.00
2022-09-07T06:29:34.378Z,7.47
2022-09-07T06:30:07.413Z,8.10
2022-09-07T06:30:39.042Z,7.22
2022-09-07T06:31:13.548Z,7.28
2022-09-07T06:32:45.691Z,7.50
2022-09-07T06:33:21.425Z,7.22
2022-09-07T06:33:54.913Z,7.70
2022-09-07T06:34:26.740Z,7.20
2022-09-07T06:34:58.362Z,7.65
2022-09-07T06:35:29.954Z,7.63
2022-09-07T06:36:21.837Z,7.27
2022-09-07T06:36:53.459Z,7.55
2022-09-07T06:37:25.082Z,7.22
2022-09-07T06:37:56.757Z,7.28
2022-09-07T06:38:32.841Z,7.55
2022-09-07T06:39:04.470Z,7.10
2022-09-07T06:39:36.469Z,7.15
2022-09-07T06:40:10.477Z,7.10
2022-09-07T06:40:42.420Z,7.45
2022-09-07T06:42:10.622Z,6.93
2022-09-07T06:42:42.375Z,7.25
2022-09-07T06:43:13.962Z,7.65
2022-09-07T06:43:46.502Z,7.65
2022-09-07T06:44:18.308Z,7.18
2022-09-07T06:44:49.883Z,6.90
2022-09-07T06:45:21.599Z,7.50
2022-09-07T06:45:54.617Z,7.03
2022-09-07T06:47:18.693Z,7.50
2022-09-07T06:47:53.950Z,7.30
2022-09-07T06:48:25.770Z,7.50
2022-09-07T06:48:57.398Z,7.65
2022-09-07T06:49:29.074Z,7.90
2022-09-07T06:50:01.481Z,7.80
2022-09-07T06:50:33.720Z,7.35
2022-09-07T06:51:19.533Z,6.75
2022-09-07T06:51:51.306Z,7.13
2022-09-07T06:52:23.004Z,7.13
2022-09-07T06:53:48.313Z,7.33
2022-09-07T06:55:11.718Z,7.45
2022-09-07T06:55:46.141Z,7.35
2022-09-07T06:56:19.309Z,7.18
2022-09-07T06:56:50.986Z,6.72
2022-09-07T06:57:22.571Z,7.47
2022-09-07T06:57:54.675Z,7.72
2022-09-07T06:58:27.120Z,8.00
2022-09-07T06:58:59.831Z,7.10
2022-09-07T06:59:31.404Z,8.03
2022-09-07T07:00:03.778Z,6.90
2022-09-07T07:00:35.454Z,6.90
2022-09-07T07:01:18.484Z,6.75
2022-09-07T07:01:50.175Z,7.10
2022-09-07T07:02:21.802Z,7.10
2022-09-07T07:02:53.431Z,7.03
2022-09-07T07:03:25.195Z,6.63
2022-09-07T07:03:56.851Z,6.60
2022-09-07T07:04:28.431Z,6.65
2022-09-07T07:05:00.015Z,7.20
2022-09-07T07:05:31.829Z,7.28
2022-09-07T07:06:04.296Z,7.13
2022-09-07T07:06:37.810Z,7.55
2022-09-07T07:07:13.952Z,7.65
2022-09-07T07:07:45.571Z,6.60
2022-09-07T07:08:17.218Z,6.88
2022-09-07T07:08:53.236Z,7.05
2022-09-07T07:09:24.861Z,7.38
2022-09-07T07:09:56.451Z,6.57
2022-09-07T07:10:28.235Z,7.37
2022-09-07T07:11:08.124Z,6.75
2022-09-07T07:11:39.726Z,7.45
2022-09-07T07:12:11.466Z,7.38
2022-09-07T07:13:48.049Z,6.53
2022-09-07T07:14:21.167Z,6.60
2022-09-07T07:14:52.840Z,6.15
2022-09-07T07:15:28.625Z,6.47
2022-09-07T07:16:12.319Z,5.95
2022-09-07T07:16:44.146Z,6.20
2022-09-07T07:17:15.771Z,6.57
2022-09-07T07:17:53.160Z,6.72
2022-09-07T07:18:27.863Z,6.70
2022-09-07T07:18:59.518Z,6.63
2022-09-07T07:19:31.102Z,6.70
2022-09-07T07:20:02.973Z,6.85
2022-09-07T07:20:42.170Z,6.63
2022-09-07T07:21:15.644Z,6.82
2022-09-07T07:22:47.035Z,6.78
2022-09-07T07:23:18.862Z,7.00
2022-09-07T07:23:52.269Z,6.20
2022-09-07T07:24:23.850Z,5.78
2022-09-07T07:24:55.454Z,6.80
2022-09-07T07:25:27.268Z,7.00
2022-09-07T07:26:06.203Z,7.68
2022-09-07T07:26:38.164Z,6.70
2022-09-07T07:27:09.801Z,7.53
2022-09-07T07:27:41.574Z,7.05
2022-09-07T07:29:05.678Z,6.63
2022-09-07T07:29:37.261Z,5.90
2022-09-07T07:30:09.327Z,5.75
2022-09-07T07:30:40.937Z,6.03
2022-09-07T07:31:13.383Z,6.30
2022-09-07T07:31:45.183Z,6.65
2022-09-07T07:32:16.844Z,6.43
2022-09-07T07:32:48.467Z,6.70
2022-09-07T07:33:20.113Z,6.82
2022-09-07T07:33:54.074Z,7.63
2022-09-07T07:34:25.809Z,7.45
2022-09-07T07:34:57.486Z,6.72
2022-09-07T07:35:29.166Z,6.40
2022-09-07T07:36:08.500Z,7.00
2022-09-07T07:36:40.477Z,6.97
2022-09-07T07:37:12.022Z,6.72
2022-09-07T07:37:43.600Z,5.47
2022-09-07T07:39:06.805Z,7.15
2022-09-07T07:40:31.839Z,6.50
2022-09-07T07:42:00.140Z,5.20
2022-09-07T07:42:38.471Z,7.27
2022-09-07T07:43:10.181Z,7.22
2022-09-07T07:43:41.921Z,7.45
2022-09-07T07:44:13.500Z,6.40
2022-09-07T07:44:45.294Z,7.75
2022-09-07T07:46:12.705Z,5.93
2022-09-07T07:46:50.514Z,6.80
2022-09-07T07:47:22.306Z,5.78
2022-09-07T07:47:53.851Z,6.28
2022-09-07T07:48:29.509Z,7.37
2022-09-07T07:49:01.216Z,6.20
2022-09-07T07:49:32.990Z,6.25
2022-09-07T07:51:09.843Z,6.47
2022-09-07T07:53:41.106Z,6.53
2022-09-07T07:53:45.169Z,6.55
2022-09-07T07:54:16.721Z,6.10
2022-09-07T07:54:48.296Z,6.25